createdAt,value
2022-08-30T00:00:04.903Z,78.08
2022-08-30T00:01:07.474Z,77.94
2022-08-30T00:02:14.503Z,77.93
2022-08-30T00:03:16.624Z,77.78
2022-08-30T00:04:18.462Z,77.73
2022-08-30T00:05:20.134Z,77.65
2022-08-30T00:06:22.564Z,77.58
2022-08-30T00:07:25.202Z,77.49
2022-08-30T00:08:26.937Z,77.44
2022-08-30T00:09:28.533Z,77.39
2022-08-30T00:10:30.288Z,77.43
2022-08-30T00:11:33.040Z,77.47
2022-08-30T00:12:35.984Z,77.44
2022-08-30T00:13:38.646Z,77.50
2022-08-30T00:14:40.332Z,77.48
2022-08-30T00:15:42.090Z,77.34
2022-08-30T00:16:43.840Z,77.66
2022-08-30T00:17:45.470Z,77.62
2022-08-30T00:18:47.168Z,77.55
2022-08-30T00:19:48.885Z,77.45
2022-08-30T00:20:50.555Z,77.33
2022-08-30T00:21:53.321Z,77.35
2022-08-30T00:22:54.947Z,77.14
2022-08-30T00:23:56.651Z,77.70
2022-08-30T00:25:00.841Z,77.73
2022-08-30T00:26:02.690Z,77.70
2022-08-30T00:27:04.441Z,78.20
2022-08-30T00:28:06.153Z,78.19
2022-08-30T00:29:07.783Z,78.12
2022-08-30T00:30:10.015Z,78.17
2022-08-30T00:31:15.138Z,78.25
2022-08-30T00:32:18.515Z,77.89
2022-08-30T00:33:20.259Z,77.80
2022-08-30T00:34:21.907Z,78.32
2022-08-30T00:35:23.946Z,78.33
2022-08-30T00:36:25.614Z,78.37
2022-08-30T00:37:27.342Z,78.35
2022-08-30T00:38:28.952Z,78.49
2022-08-30T00:39:30.565Z,78.49
2022-08-30T00:40:32.380Z,78.60
2022-08-30T00:41:34.410Z,78.70
2022-08-30T00:42:36.101Z,78.85
2022-08-30T00:43:37.754Z,78.73
2022-08-30T00:44:40.158Z,78.77
2022-08-30T00:45:41.785Z,78.60
2022-08-30T00:46:43.648Z,78.62
2022-08-30T00:47:45.635Z,78.92
2022-08-30T00:48:48.129Z,78.92
2022-08-30T00:49:52.100Z,78.98
2022-08-30T00:50:56.042Z,79.08
2022-08-30T00:51:57.947Z,79.13
2022-08-30T00:53:00.663Z,79.11
2022-08-30T00:54:02.375Z,78.96
2022-08-30T00:55:04.186Z,79.05
2022-08-30T00:56:06.194Z,79.01
2022-08-30T00:57:07.900Z,78.99
2022-08-30T00:58:12.175Z,78.92
2022-08-30T00:59:13.823Z,78.78
2022-08-30T01:00:15.852Z,78.99
2022-08-30T01:01:17.608Z,78.79
2022-08-30T01:02:21.057Z,78.66
2022-08-30T01:03:22.944Z,78.49
2022-08-30T01:04:24.723Z,78.71
2022-08-30T01:05:26.388Z,78.83
2022-08-30T01:06:32.614Z,78.44
2022-08-30T01:07:34.918Z,78.38
2022-08-30T01:08:36.555Z,78.57
2022-08-30T01:09:38.153Z,78.30
2022-08-30T01:10:39.753Z,78.28
2022-08-30T01:11:41.972Z,78.05
2022-08-30T01:12:44.124Z,78.37
2022-08-30T01:13:47.332Z,78.52
2022-08-30T01:14:49.955Z,78.70
2022-08-30T01:15:53.584Z,78.69
2022-08-30T01:16:57.291Z,78.63
2022-08-30T01:17:58.960Z,78.64
2022-08-30T01:19:01.598Z,78.49
2022-08-30T01:20:11.367Z,78.06
2022-08-30T01:21:19.162Z,78.14
2022-08-30T01:22:34.232Z,78.12
2022-08-30T01:23:38.466Z,78.03
2022-08-30T01:24:40.537Z,77.98
2022-08-30T01:25:42.514Z,78.03
2022-08-30T01:26:44.110Z,78.34
2022-08-30T01:28:17.961Z,78.29
2022-08-30T01:29:21.169Z,78.20
2022-08-30T01:30:24.079Z,78.30
2022-08-30T01:31:25.879Z,78.29
2022-08-30T01:32:29.465Z,78.34
2022-08-30T01:33:31.401Z,78.58
2022-08-30T01:34:33.086Z,78.61
2022-08-30T01:35:44.587Z,78.05
2022-08-30T01:36:46.600Z,78.49
2022-08-30T01:37:48.528Z,78.66
2022-08-30T01:38:54.398Z,78.62
2022-08-30T01:39:56.290Z,78.74
2022-08-30T01:41:08.969Z,78.64
2022-08-30T01:42:10.849Z,78.69
2022-08-30T01:43:13.284Z,78.82
2022-08-30T01:44:15.176Z,78.81
2022-08-30T01:45:16.970Z,78.93
2022-08-30T01:46:19.532Z,78.98
2022-08-30T01:47:21.501Z,78.88
2022-08-30T01:48:23.116Z,78.99
2022-08-30T01:49:32.713Z,79.01
2022-08-30T01:50:34.434Z,78.96
2022-08-30T01:51:37.887Z,78.94
2022-08-30T01:52:39.549Z,79.10
2022-08-30T01:53:41.978Z,79.12
2022-08-30T01:54:43.709Z,79.06
2022-08-30T01:55:45.543Z,78.99
2022-08-30T01:56:47.771Z,79.09
2022-08-30T01:57:49.954Z,79.15
2022-08-30T01:58:51.843Z,79.07
2022-08-30T01:59:53.513Z,79.20
2022-08-30T02:00:55.151Z,79.22
2022-08-30T02:01:57.181Z,79.10
2022-08-30T02:02:58.928Z,78.84
2022-08-30T02:04:00.624Z,79.00
2022-08-30T02:05:02.420Z,78.98
2022-08-30T02:06:08.658Z,79.23
2022-08-30T02:07:10.696Z,79.22
2022-08-30T02:08:12.306Z,79.26
2022-08-30T02:09:13.990Z,79.35
2022-08-30T02:10:15.696Z,79.27
2022-08-30T02:11:17.508Z,79.26
2022-08-30T02:12:19.456Z,79.34
2022-08-30T02:13:21.092Z,79.37
2022-08-30T02:14:22.747Z,79.34
2022-08-30T02:15:24.489Z,79.32
2022-08-30T02:16:26.481Z,79.44
2022-08-30T02:17:28.233Z,79.53
2022-08-30T02:18:30.514Z,79.55
2022-08-30T02:19:32.127Z,79.56
2022-08-30T02:20:33.814Z,79.60
2022-08-30T02:21:35.511Z,79.65
2022-08-30T02:22:37.127Z,79.58
2022-08-30T02:23:38.832Z,79.67
2022-08-30T02:24:40.491Z,79.58
2022-08-30T02:25:42.121Z,79.75
2022-08-30T02:26:43.779Z,79.77
2022-08-30T02:27:45.376Z,79.93
2022-08-30T02:28:49.899Z,80.06
2022-08-30T02:29:52.018Z,80.06
2022-08-30T02:30:53.927Z,79.95
2022-08-30T02:31:55.692Z,79.95
2022-08-30T02:32:57.561Z,79.85
2022-08-30T02:33:59.249Z,79.93
2022-08-30T02:35:00.872Z,80.02
2022-08-30T02:36:03.241Z,79.70
2022-08-30T02:37:06.094Z,79.75
2022-08-30T02:38:07.863Z,79.82
2022-08-30T02:39:10.210Z,80.07
2022-08-30T02:40:12.131Z,80.00
2022-08-30T02:41:14.189Z,80.13
2022-08-30T02:42:15.845Z,80.10
2022-08-30T02:43:18.369Z,80.19
2022-08-30T02:44:20.152Z,80.12
2022-08-30T02:45:21.812Z,80.13
2022-08-30T02:46:23.523Z,80.16
2022-08-30T02:47:25.142Z,80.29
2022-08-30T02:48:26.794Z,80.35
2022-08-30T02:49:35.703Z,80.50
2022-08-30T02:50:43.739Z,80.49
2022-08-30T02:51:45.442Z,80.57
2022-08-30T02:52:48.414Z,80.61
2022-08-30T02:53:50.157Z,80.65
2022-08-30T02:54:51.778Z,80.55
2022-08-30T02:55:53.377Z,80.79
2022-08-30T02:56:57.036Z,80.79
2022-08-30T02:57:58.711Z,80.72
2022-08-30T02:59:00.351Z,80.84
2022-08-30T03:00:02.064Z,80.74
2022-08-30T03:01:05.930Z,80.76
2022-08-30T03:02:07.887Z,80.66
2022-08-30T03:03:09.676Z,80.78
2022-08-30T03:04:11.467Z,80.72
2022-08-30T03:05:14.029Z,80.89
2022-08-30T03:06:15.782Z,80.87
2022-08-30T03:07:17.403Z,80.90
2022-08-30T03:08:19.007Z,80.85
2022-08-30T03:09:20.620Z,80.88
2022-08-30T03:10:22.365Z,80.78
2022-08-30T03:11:24.084Z,80.81
2022-08-30T03:12:25.867Z,80.91
2022-08-30T03:13:27.470Z,80.96
2022-08-30T03:14:29.090Z,81.00
2022-08-30T03:15:30.784Z,81.10
2022-08-30T03:16:32.737Z,80.89
2022-08-30T03:17:34.590Z,80.90
2022-08-30T03:18:36.590Z,80.85
2022-08-30T03:19:38.208Z,80.84
2022-08-30T03:20:41.329Z,80.85
2022-08-30T03:21:45.457Z,80.94
2022-08-30T03:22:47.130Z,81.06
2022-08-30T03:23:48.744Z,81.08
2022-08-30T03:24:50.344Z,80.94
2022-08-30T03:25:53.588Z,80.91
2022-08-30T03:26:55.334Z,80.91
2022-08-30T03:27:56.969Z,80.88
2022-08-30T03:28:59.246Z,80.90
2022-08-30T03:30:00.861Z,80.92
2022-08-30T03:31:02.541Z,80.82
2022-08-30T03:32:04.278Z,80.90
2022-08-30T03:33:05.928Z,80.92
2022-08-30T03:34:10.975Z,80.87
2022-08-30T03:35:12.731Z,80.87
2022-08-30T03:36:14.399Z,80.79
2022-08-30T03:37:16.139Z,80.78
2022-08-30T03:38:17.860Z,80.65
2022-08-30T03:39:19.559Z,80.91
2022-08-30T03:40:21.826Z,80.93
2022-08-30T03:41:25.444Z,80.88
2022-08-30T03:42:27.056Z,80.62
2022-08-30T03:43:29.640Z,80.59
2022-08-30T03:44:31.378Z,80.98
2022-08-30T03:45:33.105Z,81.31
2022-08-30T03:46:37.434Z,81.32
2022-08-30T03:47:39.461Z,81.12
2022-08-30T03:48:44.094Z,81.17
2022-08-30T03:49:45.710Z,80.97
2022-08-30T03:50:47.446Z,81.39
2022-08-30T03:51:49.063Z,81.50
2022-08-30T03:52:50.687Z,81.56
2022-08-30T03:53:52.306Z,81.15
2022-08-30T03:54:53.933Z,81.12
2022-08-30T03:55:55.769Z,80.97
2022-08-30T03:56:59.065Z,80.99
2022-08-30T03:58:00.734Z,80.69
2022-08-30T03:59:02.633Z,80.82
2022-08-30T04:00:05.124Z,80.82
2022-08-30T04:01:07.407Z,80.98
2022-08-30T04:02:09.237Z,81.30
2022-08-30T04:03:10.942Z,81.53
2022-08-30T04:04:13.885Z,81.55
2022-08-30T04:05:18.717Z,81.72
2022-08-30T04:06:20.480Z,81.86
2022-08-30T04:07:22.103Z,82.00
2022-08-30T04:08:23.823Z,82.05
2022-08-30T04:09:25.463Z,82.20
2022-08-30T04:10:27.230Z,82.54
2022-08-30T04:11:28.912Z,82.72
2022-08-30T04:12:30.534Z,82.68
2022-08-30T04:13:32.160Z,82.66
2022-08-30T04:14:34.094Z,82.66
2022-08-30T04:15:35.753Z,82.85
2022-08-30T04:16:37.487Z,82.76
2022-08-30T04:17:39.232Z,82.79
2022-08-30T04:18:40.903Z,82.65
2022-08-30T04:19:42.524Z,82.68
2022-08-30T04:20:44.143Z,82.68
2022-08-30T04:21:45.880Z,82.76
2022-08-30T04:22:47.650Z,82.73
2022-08-30T04:23:49.266Z,82.62
2022-08-30T04:24:50.907Z,82.52
2022-08-30T04:25:52.522Z,82.59
2022-08-30T04:26:54.211Z,82.50
2022-08-30T04:27:56.103Z,82.56
2022-08-30T04:28:58.272Z,82.72
2022-08-30T04:30:00.305Z,82.77
2022-08-30T04:31:15.310Z,82.81
2022-08-30T04:32:17.290Z,82.70
2022-08-30T04:33:19.304Z,82.66
2022-08-30T04:34:21.019Z,82.42
2022-08-30T04:35:22.685Z,82.16
2022-08-30T04:36:24.354Z,82.02
2022-08-30T04:37:26.046Z,82.08
2022-08-30T04:38:30.568Z,81.86
2022-08-30T04:39:32.284Z,81.66
2022-08-30T04:40:34.013Z,81.58
2022-08-30T04:41:36.394Z,81.51
2022-08-30T04:42:38.026Z,81.43
2022-08-30T04:43:40.024Z,81.27
2022-08-30T04:44:41.775Z,81.30
2022-08-30T04:45:43.577Z,81.18
2022-08-30T04:46:45.228Z,81.20
2022-08-30T04:47:46.930Z,81.04
2022-08-30T04:48:49.136Z,81.05
2022-08-30T04:49:50.830Z,80.88
2022-08-30T04:50:52.439Z,80.66
2022-08-30T04:51:54.041Z,80.54
2022-08-30T04:52:55.645Z,80.39
2022-08-30T04:53:57.255Z,80.39
2022-08-30T04:54:59.077Z,80.25
2022-08-30T04:56:00.697Z,79.56
2022-08-30T04:57:02.334Z,79.56
2022-08-30T04:58:05.964Z,79.51
2022-08-30T04:59:07.554Z,79.76
2022-08-30T05:00:12.195Z,79.47
2022-08-30T05:01:15.072Z,78.25
2022-08-30T05:02:21.099Z,77.87
2022-08-30T05:03:22.770Z,77.44
2022-08-30T05:04:24.395Z,77.18
2022-08-30T05:05:41.034Z,77.10
2022-08-30T05:06:42.704Z,76.83
2022-08-30T05:07:44.362Z,76.79
2022-08-30T05:08:46.674Z,77.18
2022-08-30T05:09:48.645Z,77.33
2022-08-30T05:10:51.404Z,77.71
2022-08-30T05:11:53.512Z,77.93
2022-08-30T05:12:55.313Z,78.05
2022-08-30T05:13:56.935Z,78.48
2022-08-30T05:14:58.630Z,79.08
2022-08-30T05:16:00.553Z,79.16
2022-08-30T05:17:03.008Z,79.43
2022-08-30T05:18:05.370Z,79.49
2022-08-30T05:19:08.056Z,79.60
2022-08-30T05:20:10.857Z,79.71
2022-08-30T05:21:14.633Z,79.59
2022-08-30T05:22:16.343Z,79.71
2022-08-30T05:23:18.191Z,79.35
2022-08-30T05:24:20.083Z,77.76
2022-08-30T05:25:26.394Z,77.55
2022-08-30T05:26:29.835Z,77.16
2022-08-30T05:27:31.618Z,77.47
2022-08-30T05:28:34.099Z,74.85
2022-08-30T05:29:35.713Z,74.84
2022-08-30T05:30:37.496Z,75.29
2022-08-30T05:31:39.266Z,72.57
2022-08-30T05:32:41.165Z,72.32
2022-08-30T05:33:43.427Z,73.13
2022-08-30T05:34:45.110Z,73.33
2022-08-30T05:35:46.725Z,73.20
2022-08-30T05:36:48.350Z,74.01
2022-08-30T05:37:50.964Z,73.09
2022-08-30T05:38:53.043Z,73.20
2022-08-30T05:39:54.873Z,72.61
2022-08-30T05:40:56.496Z,72.93
2022-08-30T05:41:59.286Z,72.75
2022-08-30T05:43:01.042Z,72.38
2022-08-30T05:44:03.203Z,72.08
2022-08-30T05:45:05.789Z,71.90
2022-08-30T05:46:09.366Z,71.84
2022-08-30T05:47:11.098Z,70.64
2022-08-30T05:48:14.964Z,69.53
2022-08-30T05:49:16.628Z,69.59
2022-08-30T05:50:18.339Z,68.93
2022-08-30T05:51:22.080Z,68.35
2022-08-30T05:52:23.717Z,67.37
2022-08-30T05:53:25.446Z,67.29
2022-08-30T05:54:27.083Z,66.08
2022-08-30T05:55:28.739Z,66.36
2022-08-30T05:56:35.129Z,65.51
2022-08-30T05:57:37.558Z,64.68
2022-08-30T05:58:41.753Z,65.82
2022-08-30T05:59:43.386Z,64.60
2022-08-30T06:00:44.998Z,64.16
2022-08-30T06:01:46.915Z,64.37
2022-08-30T06:02:48.879Z,64.17
2022-08-30T06:03:50.601Z,63.83
2022-08-30T06:04:52.242Z,64.10
2022-08-30T06:05:54.342Z,64.16
2022-08-30T06:06:56.024Z,62.44
2022-08-30T06:07:57.701Z,62.07
2022-08-30T06:08:59.420Z,62.96
2022-08-30T06:10:01.364Z,62.38
2022-08-30T06:11:02.986Z,60.01
2022-08-30T06:12:04.771Z,59.09
2022-08-30T06:13:06.422Z,59.20
2022-08-30T06:14:08.220Z,58.35
2022-08-30T06:15:10.311Z,58.23
2022-08-30T06:16:12.987Z,58.50
2022-08-30T06:17:14.660Z,58.73
2022-08-30T06:18:16.376Z,58.13
2022-08-30T06:19:18.390Z,56.92
2022-08-30T06:20:20.491Z,57.51
2022-08-30T06:21:29.409Z,58.66
2022-08-30T06:22:31.041Z,57.07
2022-08-30T06:23:32.768Z,57.09
2022-08-30T06:24:56.416Z,56.62
2022-08-30T06:26:03.146Z,56.93
2022-08-30T06:27:04.992Z,56.40
2022-08-30T06:28:06.777Z,56.92
2022-08-30T06:29:09.577Z,57.46
2022-08-30T06:30:12.071Z,55.77
2022-08-30T06:31:14.570Z,55.60
2022-08-30T06:32:16.200Z,55.79
2022-08-30T06:33:17.811Z,55.58
2022-08-30T06:34:19.485Z,55.09
2022-08-30T06:35:21.195Z,55.38
2022-08-30T06:36:24.239Z,55.97
2022-08-30T06:37:30.139Z,55.33
2022-08-30T06:38:31.987Z,55.09
2022-08-30T06:39:33.594Z,55.29
2022-08-30T06:40:36.337Z,54.48
2022-08-30T06:41:39.080Z,55.26
2022-08-30T06:42:40.688Z,55.63
2022-08-30T06:43:46.769Z,55.32
2022-08-30T06:44:50.554Z,54.73
2022-08-30T06:45:53.169Z,54.53
2022-08-30T06:46:55.908Z,53.93
2022-08-30T06:49:05.902Z,53.73
2022-08-30T06:50:08.259Z,54.10
2022-08-30T06:51:13.641Z,53.67
2022-08-30T06:52:15.794Z,54.14
2022-08-30T06:53:17.422Z,54.86
2022-08-30T06:54:19.369Z,54.60
2022-08-30T06:55:21.052Z,54.63
2022-08-30T06:56:22.941Z,55.13
2022-08-30T06:57:25.112Z,55.02
2022-08-30T06:58:27.339Z,55.41
2022-08-30T06:59:28.949Z,55.08
2022-08-30T07:00:31.206Z,55.89
2022-08-30T07:01:32.935Z,54.98
2022-08-30T07:02:37.045Z,55.00
2022-08-30T07:03:38.735Z,55.69
2022-08-30T07:04:40.352Z,55.97
2022-08-30T07:05:41.955Z,56.41
2022-08-30T07:06:43.576Z,56.22
2022-08-30T07:07:45.243Z,56.53
2022-08-30T07:08:47.355Z,56.40
2022-08-30T07:09:49.722Z,56.98
2022-08-30T07:10:52.126Z,55.79
2022-08-30T07:11:53.741Z,56.11
2022-08-30T07:12:55.411Z,56.48
2022-08-30T07:13:57.101Z,56.88
2022-08-30T07:14:58.706Z,56.04
2022-08-30T07:16:00.488Z,56.82
2022-08-30T07:17:02.201Z,56.79
2022-08-30T07:18:23.166Z,56.63
2022-08-30T07:19:24.771Z,56.50
2022-08-30T07:20:26.466Z,56.75
2022-08-30T07:21:39.128Z,56.18
2022-08-30T07:22:40.773Z,56.10
2022-08-30T07:23:43.284Z,56.44
2022-08-30T07:24:44.912Z,56.59
2022-08-30T07:25:46.562Z,57.64
2022-08-30T07:26:51.835Z,57.58
2022-08-30T07:27:54.131Z,56.82
2022-08-30T07:28:56.435Z,56.26
2022-08-30T07:29:58.958Z,55.94
2022-08-30T07:31:00.655Z,56.33
2022-08-30T07:32:02.411Z,55.22
2022-08-30T07:33:04.332Z,55.79
2022-08-30T07:34:06.566Z,55.33
2022-08-30T07:35:08.451Z,56.07
2022-08-30T07:36:10.141Z,55.13
2022-08-30T07:37:18.045Z,54.57
2022-08-30T07:38:19.949Z,54.62
2022-08-30T07:39:21.610Z,53.99
2022-08-30T07:40:23.363Z,54.56
2022-08-30T07:41:27.346Z,54.41
2022-08-30T07:42:29.010Z,53.15
2022-08-30T07:43:31.187Z,53.66
2022-08-30T07:44:32.846Z,54.08
2022-08-30T07:45:35.371Z,53.48
2022-08-30T07:46:37.554Z,53.71
2022-08-30T07:47:39.329Z,53.88
2022-08-30T07:48:41.117Z,53.13
2022-08-30T07:49:45.861Z,53.22
2022-08-30T07:50:47.617Z,53.63
2022-08-30T07:51:49.238Z,53.39
2022-08-30T07:52:51.188Z,54.10
2022-08-30T07:53:53.101Z,53.68
2022-08-30T07:54:55.542Z,53.58
2022-08-30T07:55:57.242Z,53.08
2022-08-30T07:56:58.868Z,53.30
2022-08-30T07:59:07.043Z,54.63
2022-08-30T08:00:09.364Z,53.74
2022-08-30T08:01:11.760Z,54.19
2022-08-30T08:02:13.584Z,53.58
2022-08-30T08:03:15.355Z,53.34
2022-08-30T08:04:16.985Z,53.22
2022-08-30T08:05:21.970Z,53.40
2022-08-30T08:06:27.748Z,54.45
2022-08-30T08:07:36.413Z,53.92
2022-08-30T08:08:38.496Z,52.79
2022-08-30T08:09:40.148Z,51.95
2022-08-30T08:10:42.272Z,51.82
2022-08-30T08:11:43.961Z,52.07
2022-08-30T08:12:45.607Z,51.30
2022-08-30T08:13:53.116Z,51.42
2022-08-30T08:14:55.923Z,52.29
2022-08-30T08:15:57.574Z,52.19
2022-08-30T08:16:59.902Z,52.44
2022-08-30T08:18:01.585Z,52.11
2022-08-30T08:19:04.619Z,52.37
2022-08-30T08:20:06.680Z,52.27
2022-08-30T08:21:08.308Z,52.55
2022-08-30T08:22:20.656Z,52.43
2022-08-30T08:23:22.869Z,52.50
2022-08-30T08:24:24.483Z,52.03
2022-08-30T08:25:26.857Z,51.85
2022-08-30T08:26:28.536Z,52.51
2022-08-30T08:27:30.139Z,52.53
2022-08-30T08:28:31.811Z,52.36
2022-08-30T08:29:33.423Z,52.20
2022-08-30T08:30:36.635Z,52.21
2022-08-30T08:31:38.462Z,52.30
2022-08-30T08:32:40.500Z,52.24
2022-08-30T08:33:43.574Z,52.12
2022-08-30T08:34:45.295Z,52.32
2022-08-30T08:35:46.954Z,52.59
2022-08-30T08:36:49.085Z,52.47
2022-08-30T08:37:50.759Z,52.57
2022-08-30T08:38:52.747Z,52.72
2022-08-30T08:39:54.440Z,52.50
2022-08-30T08:41:00.226Z,52.02
2022-08-30T08:42:22.390Z,52.30
2022-08-30T08:43:23.998Z,52.37
2022-08-30T08:44:53.448Z,51.95
2022-08-30T08:46:03.392Z,52.93
2022-08-30T08:47:35.663Z,53.03
2022-08-30T08:48:59.585Z,51.69
2022-08-30T08:50:03.240Z,51.67
2022-08-30T08:51:23.695Z,51.70
2022-08-30T08:52:53.970Z,51.86
2022-08-30T08:54:01.688Z,51.56
2022-08-30T08:55:11.998Z,51.14
2022-08-30T08:56:15.646Z,51.67
2022-08-30T08:57:19.341Z,50.99
2022-08-30T08:58:27.691Z,51.79
2022-08-30T08:59:29.310Z,51.62
2022-08-30T09:00:31.724Z,51.14
2022-08-30T09:01:33.775Z,51.16
2022-08-30T09:02:42.081Z,50.62
2022-08-30T09:03:44.637Z,51.23
2022-08-30T09:04:46.316Z,50.41
2022-08-30T09:05:48.480Z,50.39
2022-08-30T09:06:59.487Z,49.99
2022-08-30T09:08:06.561Z,50.43
2022-08-30T09:09:11.432Z,49.95
2022-08-30T09:10:13.078Z,49.31
2022-08-30T09:11:21.545Z,49.00
2022-08-30T09:12:27.954Z,49.16
2022-08-30T09:13:29.627Z,49.74
2022-08-30T09:14:44.266Z,49.54
2022-08-30T09:15:53.741Z,48.76
2022-08-30T09:17:10.216Z,49.09
2022-08-30T09:19:36.520Z,48.42
2022-08-30T09:20:41.375Z,48.32
2022-08-30T09:21:42.999Z,48.21
2022-08-30T09:22:46.692Z,48.19
2022-08-30T09:23:50.133Z,48.28
2022-08-30T09:25:06.579Z,48.84
2022-08-30T09:26:09.483Z,48.53
2022-08-30T09:27:16.554Z,49.18
2022-08-30T09:28:25.606Z,48.81
2022-08-30T09:29:27.261Z,49.15
2022-08-30T09:30:29.522Z,48.65
2022-08-30T09:31:32.567Z,48.46
2022-08-30T09:32:39.368Z,48.84
2022-08-30T09:33:40.999Z,48.65
2022-08-30T09:34:43.447Z,48.45
2022-08-30T09:35:47.762Z,48.69
2022-08-30T09:36:51.977Z,48.87
2022-08-30T09:37:56.555Z,49.48
2022-08-30T09:39:05.523Z,49.19
2022-08-30T09:40:12.606Z,49.19
2022-08-30T09:41:34.127Z,48.96
2022-08-30T09:42:35.816Z,48.80
2022-08-30T09:43:37.494Z,48.99
2022-08-30T09:44:40.320Z,48.82
2022-08-30T09:45:42.940Z,48.49
2022-08-30T09:46:48.806Z,48.69
2022-08-30T09:47:50.431Z,49.60
2022-08-30T09:48:52.289Z,48.44
2022-08-30T09:50:04.538Z,48.16
2022-08-30T09:51:13.189Z,48.24
2022-08-30T09:52:26.669Z,47.97
2022-08-30T09:53:33.701Z,47.96
2022-08-30T09:54:45.332Z,48.48
2022-08-30T09:56:11.036Z,48.40
2022-08-30T09:59:05.234Z,48.04
2022-08-30T10:00:18.812Z,47.76
2022-08-30T10:01:36.024Z,48.66
2022-08-30T10:02:48.017Z,48.20
2022-08-30T10:04:15.008Z,48.29
2022-08-30T10:05:33.003Z,46.63
2022-08-30T10:06:40.063Z,46.91
2022-08-30T10:07:55.970Z,47.25
2022-08-30T10:09:10.818Z,46.83
2022-08-30T10:10:36.495Z,47.00
2022-08-30T10:11:59.499Z,46.82
2022-08-30T10:13:22.882Z,47.39
2022-08-30T10:14:53.285Z,46.91
2022-08-30T10:16:03.467Z,47.11
2022-08-30T10:17:23.703Z,48.21
2022-08-30T10:18:32.973Z,47.79
2022-08-30T10:19:54.205Z,48.89
2022-08-30T10:20:58.453Z,48.74
2022-08-30T10:22:04.319Z,48.36
2022-08-30T10:24:01.594Z,48.73
2022-08-30T10:25:29.295Z,48.71
2022-08-30T10:26:37.323Z,48.56
2022-08-30T10:27:43.969Z,49.23
2022-08-30T10:28:51.124Z,49.31
2022-08-30T10:30:02.043Z,48.85
2022-08-30T10:31:07.961Z,49.10
2022-08-30T10:32:17.703Z,49.39
2022-08-30T10:33:27.768Z,48.89
2022-08-30T10:35:17.463Z,49.16
2022-08-30T10:36:27.398Z,49.08
2022-08-30T10:37:30.381Z,49.67
2022-08-30T10:38:36.718Z,49.24
2022-08-30T10:39:45.954Z,49.35
2022-08-30T10:41:08.553Z,49.11
2022-08-30T10:42:19.161Z,49.83
2022-08-30T10:43:45.608Z,49.86
2022-08-30T10:45:03.065Z,49.48
2022-08-30T10:46:08.204Z,49.50
2022-08-30T10:47:37.720Z,49.22
2022-08-30T10:48:44.447Z,49.36
2022-08-30T10:49:54.547Z,50.21
2022-08-30T10:50:57.394Z,49.96
2022-08-30T10:52:12.168Z,49.64
2022-08-30T10:53:21.408Z,49.71
2022-08-30T10:54:45.142Z,49.83
2022-08-30T10:55:54.125Z,49.85
2022-08-30T10:56:56.395Z,50.65
2022-08-30T10:58:02.142Z,51.23
2022-08-30T10:59:04.899Z,50.14
2022-08-30T11:00:28.923Z,49.54
2022-08-30T11:04:05.339Z,49.64
2022-08-30T11:05:37.164Z,50.64
2022-08-30T11:06:53.929Z,50.02
2022-08-30T11:08:00.307Z,49.67
2022-08-30T11:09:26.986Z,50.17
2022-08-30T11:10:55.709Z,49.80
2022-08-30T11:12:00.067Z,49.71
2022-08-30T11:13:16.154Z,50.09
2022-08-30T11:14:18.658Z,49.70
2022-08-30T11:15:30.746Z,49.84
2022-08-30T11:16:46.745Z,49.08
2022-08-30T11:18:08.499Z,49.54
2022-08-30T11:19:18.945Z,50.11
2022-08-30T11:20:28.562Z,49.66
2022-08-30T11:21:38.898Z,49.97
2022-08-30T11:23:00.498Z,49.42
2022-08-30T11:24:02.194Z,49.00
2022-08-30T11:25:10.037Z,48.75
2022-08-30T11:26:20.529Z,49.60
2022-08-30T11:27:58.917Z,47.61
2022-08-30T11:29:01.821Z,47.13
2022-08-30T11:30:26.942Z,47.33
2022-08-30T11:31:37.868Z,47.68
2022-08-30T11:33:02.172Z,47.26
2022-08-30T11:34:04.058Z,46.79
2022-08-30T11:35:06.190Z,47.47
2022-08-30T11:36:37.411Z,47.00
2022-08-30T11:37:42.079Z,47.66
2022-08-30T11:38:44.337Z,46.63
2022-08-30T11:39:49.354Z,46.25
2022-08-30T11:40:56.821Z,46.59
2022-08-30T11:42:29.504Z,46.29
2022-08-30T11:43:34.719Z,45.45
2022-08-30T11:44:38.596Z,45.32
2022-08-30T11:45:45.287Z,45.72
2022-08-30T11:46:47.758Z,45.66
2022-08-30T11:47:51.147Z,45.77
2022-08-30T11:49:13.097Z,45.97
2022-08-30T11:50:18.308Z,46.34
2022-08-30T11:52:23.808Z,46.69
2022-08-30T11:53:42.790Z,45.80
2022-08-30T11:54:56.168Z,45.75
2022-08-30T11:56:21.358Z,45.21
2022-08-30T11:57:46.652Z,45.30
2022-08-30T11:59:26.039Z,45.29
2022-08-30T12:00:34.994Z,44.74
2022-08-30T12:01:42.226Z,44.71
2022-08-30T12:03:00.389Z,45.17
2022-08-30T12:04:16.806Z,45.54
2022-08-30T12:05:40.117Z,45.63
2022-08-30T12:06:41.682Z,44.94
2022-08-30T12:08:00.703Z,45.39
2022-08-30T12:09:08.284Z,44.81
2022-08-30T12:10:22.438Z,45.42
2022-08-30T12:11:33.426Z,44.17
2022-08-30T12:12:38.028Z,44.59
2022-08-30T12:13:42.712Z,44.49
2022-08-30T12:14:49.438Z,44.39
2022-08-30T12:16:22.852Z,44.72
2022-08-30T12:17:50.993Z,45.04
2022-08-30T12:18:52.866Z,45.16
2022-08-30T12:19:57.570Z,44.97
2022-08-30T12:21:05.219Z,45.47
2022-08-30T12:22:09.516Z,45.97
2022-08-30T12:23:29.257Z,45.95
2022-08-30T12:24:40.272Z,45.92
2022-08-30T12:25:41.971Z,44.71
2022-08-30T12:26:44.383Z,45.41
2022-08-30T12:27:46.654Z,45.85
2022-08-30T12:28:49.728Z,45.59
2022-08-30T12:30:02.214Z,44.65
2022-08-30T12:31:18.469Z,44.88
2022-08-30T12:32:23.356Z,43.72
2022-08-30T12:33:36.628Z,43.34
2022-08-30T12:34:43.568Z,43.45
2022-08-30T12:35:45.336Z,42.15
2022-08-30T12:37:04.902Z,42.31
2022-08-30T12:38:12.232Z,42.69
2022-08-30T12:39:16.623Z,42.97
2022-08-30T12:40:20.200Z,43.72
2022-08-30T12:41:22.703Z,42.56
2022-08-30T12:42:28.793Z,42.30
2022-08-30T12:43:41.617Z,42.32
2022-08-30T12:44:43.347Z,42.61
2022-08-30T12:45:45.911Z,41.91
2022-08-30T12:46:59.688Z,42.04
2022-08-30T12:48:12.546Z,42.08
2022-08-30T12:49:16.527Z,42.17
2022-08-30T12:50:21.853Z,42.32
2022-08-30T12:51:27.341Z,41.77
2022-08-30T12:52:40.984Z,41.97
2022-08-30T12:53:42.943Z,42.07
2022-08-30T12:54:45.393Z,42.32
2022-08-30T12:55:54.554Z,41.81
2022-08-30T12:57:19.133Z,42.44
2022-08-30T12:58:34.585Z,43.01
2022-08-30T12:59:54.267Z,43.96
2022-08-30T13:01:38.992Z,42.93
2022-08-30T13:02:44.074Z,42.47
2022-08-30T13:03:59.791Z,42.79
2022-08-30T13:05:34.435Z,42.90
2022-08-30T13:06:51.638Z,43.83
2022-08-30T13:08:15.630Z,43.22
2022-08-30T13:09:38.087Z,43.50
2022-08-30T13:10:55.921Z,44.40
2022-08-30T13:11:58.290Z,43.07
2022-08-30T13:13:02.045Z,42.41
2022-08-30T13:14:38.275Z,42.28
2022-08-30T13:15:44.147Z,42.43
2022-08-30T13:16:46.811Z,42.53
2022-08-30T13:17:50.984Z,42.86
2022-08-30T13:19:18.612Z,41.80
2022-08-30T13:20:22.657Z,42.22
2022-08-30T13:21:31.845Z,41.85
2022-08-30T13:22:38.033Z,41.62
2022-08-30T13:23:39.720Z,42.04
2022-08-30T13:24:41.347Z,40.95
2022-08-30T13:25:43.330Z,41.25
2022-08-30T13:26:45.354Z,41.27
2022-08-30T13:27:47.044Z,40.99
2022-08-30T13:29:00.508Z,40.79
2022-08-30T13:30:14.655Z,40.61
2022-08-30T13:31:16.545Z,40.19
2022-08-30T13:32:18.226Z,41.11
2022-08-30T13:33:20.841Z,40.76
2022-08-30T13:34:22.969Z,41.87
2022-08-30T13:35:24.740Z,41.44
2022-08-30T13:36:29.333Z,41.23
2022-08-30T13:37:50.106Z,41.46
2022-08-30T13:38:52.555Z,41.07
2022-08-30T13:39:54.371Z,41.30
2022-08-30T13:40:56.501Z,40.45
2022-08-30T13:42:31.805Z,41.05
2022-08-30T13:43:19.893Z,40.73
2022-08-30T13:44:22.637Z,41.11
2022-08-30T13:46:54.125Z,40.71
2022-08-30T13:47:56.942Z,40.75
2022-08-30T13:49:43.221Z,40.48
2022-08-30T13:50:30.944Z,41.17
2022-08-30T13:51:32.991Z,41.33
2022-08-30T13:52:36.703Z,42.09
2022-08-30T13:53:54.162Z,42.52
2022-08-30T13:54:56.593Z,42.98
2022-08-30T13:55:58.566Z,41.30
2022-08-30T13:57:00.274Z,41.84
2022-08-30T13:58:04.127Z,41.65
2022-08-30T13:59:06.543Z,42.64
2022-08-30T14:00:14.739Z,42.67
2022-08-30T14:01:16.986Z,41.50
2022-08-30T14:02:19.044Z,41.13
2022-08-30T14:03:20.929Z,41.96
2022-08-30T14:04:22.646Z,42.93
2022-08-30T14:05:48.788Z,43.53
2022-08-30T14:09:36.574Z,41.86
2022-08-30T14:10:46.576Z,41.68
2022-08-30T14:11:48.823Z,41.17
2022-08-30T14:12:53.792Z,41.13
2022-08-30T14:15:18.073Z,40.92
2022-08-30T14:16:27.804Z,41.12
2022-08-30T14:17:31.340Z,41.29